Time;durP1;ratioP1;P1;durP2;ratioP2;P2;SDS_P1;SDS_P2;PMS_P1;PMS_P2;Temp;Humidity;BMP_temperature;BMP_pressure;BME280_temperature;BME280_humidity;BME280_pressure;Samples;Min_cycle;Max_cycle;Signal;HPM_P1;HPM_P2
2023/10/22 00:01:03;;;;;;;3.65;1.98;;;;;;;12.89;100.00;99588.41;5054536;28;20120;-59
2023/10/22 00:03:28;;;;;;;3.92;1.70;;;;;;;12.93;100.00;99590.09;5055610;28;20079;-59
2023/10/22 00:05:53;;;;;;;3.42;1.40;;;;;;;12.91;100.00;99600.75;5055670;28;20491;-59
2023/10/22 00:08:19;;;;;;;3.92;1.50;;;;;;;12.88;100.00;99599.91;5055237;28;20062;-59
2023/10/22 00:10:44;;;;;;;3.75;1.70;;;;;;;12.87;100.00;99604.34;5055270;28;20033;-59
2023/10/22 00:13:10;;;;;;;5.30;1.55;;;;;;;12.86;100.00;99604.38;5055542;28;20036;-59
2023/10/22 00:15:35;;;;;;;3.05;1.40;;;;;;;12.85;100.00;99610.56;5055244;28;20029;-59
2023/10/22 00:18:00;;;;;;;3.30;1.52;;;;;;;12.85;100.00;99613.22;5055072;28;20025;-59
2023/10/22 00:20:27;;;;;;;4.90;1.52;;;;;;;12.85;100.00;99613.22;5055167;28;20507;-59
2023/10/22 00:22:52;;;;;;;2.97;1.60;;;;;;;12.83;100.00;99623.00;5055013;28;20482;-59
2023/10/22 00:25:18;;;;;;;2.70;1.50;;;;;;;12.85;100.00;99623.81;5055065;28;20029;-59
2023/10/22 00:27:43;;;;;;;4.03;1.65;;;;;;;12.87;100.00;99620.25;5055059;28;20033;-59
2023/10/22 00:30:09;;;;;;;2.88;1.42;;;;;;;12.88;100.00;99640.56;5054978;28;20602;-59
2023/10/22 00:32:34;;;;;;;2.03;1.33;;;;;;;12.92;99.93;99626.34;5055001;28;20040;-59
2023/10/22 00:34:59;;;;;;;3.53;1.60;;;;;;;12.94;100.00;99632.50;5054739;28;20030;-59
2023/10/22 00:37:25;;;;;;;4.00;1.80;;;;;;;12.96;99.87;99646.59;5055015;28;20033;-59
2023/10/22 00:39:51;;;;;;;3.47;1.38;;;;;;;12.95;99.99;99633.38;5054814;28;20022;-59
2023/10/22 00:42:16;;;;;;;3.60;1.70;;;;;;;12.96;99.97;99643.94;5054778;28;20035;-59
2023/10/22 00:44:41;;;;;;;4.20;1.40;;;;;;;13.01;99.36;99639.41;5054235;28;20029;-60
2023/10/22 00:47:09;;;;;;;3.20;1.52;;;;;;;13.01;99.63;99647.38;5054733;28;20029;-59
2023/10/22 00:49:35;;;;;;;4.80;1.70;;;;;;;13.03;99.21;99660.63;5054598;28;20082;-59
2023/10/22 00:52:01;;;;;;;3.20;1.50;;;;;;;13.06;99.48;99652.63;5054666;28;20025;-59
2023/10/22 00:54:27;;;;;;;6.68;1.63;;;;;;;13.05;99.01;99650.84;5054830;28;20021;-59
2023/10/22 00:56:53;;;;;;;6.07;1.60;;;;;;;13.05;99.41;99658.81;5054444;28;20079;-59
2023/10/22 00:59:20;;;;;;;9.70;1.65;;;;;;;13.07;99.39;99674.72;5054572;28;20422;-59
2023/10/22 01:01:46;;;;;;;8.68;1.95;;;;;;;13.10;99.22;99658.72;5054350;28;20017;-59
2023/10/22 01:04:12;;;;;;;5.60;1.90;;;;;;;13.10;99.06;99664.91;5054330;28;20534;-59
2023/10/22 01:06:38;;;;;;;3.17;1.70;;;;;;;13.08;99.19;99666.72;5054525;28;20040;-59
2023/10/22 01:09:05;;;;;;;3.63;1.65;;;;;;;13.10;99.00;99662.25;5054360;28;20125;-59
2023/10/22 01:11:32;;;;;;;3.03;1.60;;;;;;;13.11;98.96;99684.38;5054162;28;20029;-59
2023/10/22 01:13:57;;;;;;;3.17;1.60;;;;;;;13.12;99.00;99665.75;5054253;28;20450;-59
2023/10/22 01:16:23;;;;;;;3.33;1.60;;;;;;;13.13;98.82;99670.16;5054150;28;20487;-59
2023/10/22 01:18:48;;;;;;;3.20;1.65;;;;;;;13.14;98.55;99676.31;5053947;28;20017;-59
2023/10/22 01:21:14;;;;;;;7.25;1.88;;;;;;;13.15;98.20;99668.38;5052507;28;20072;-59
2023/10/22 01:23:39;;;;;;;5.47;1.80;;;;;;;13.14;98.51;99679.84;5054197;28;20463;-59
2023/10/22 01:26:09;;;;;;;3.88;1.67;;;;;;;13.15;98.49;99681.63;5054119;28;20032;-59
2023/10/22 01:28:37;;;;;;;4.63;1.80;;;;;;;13.13;98.77;99682.53;5054122;28;20074;-59
2023/10/22 01:31:10;;;;;;;5.93;1.90;;;;;;;13.13;98.65;99701.13;5053690;28;20471;-59
2023/10/22 01:33:36;;;;;;;5.60;1.77;;;;;;;13.16;98.40;99699.28;5053971;28;20139;-59
2023/10/22 01:36:01;;;;;;;4.85;2.00;;;;;;;13.14;98.61;99708.16;5053826;28;20149;-59
2023/10/22 01:38:27;;;;;;;5.38;1.75;;;;;;;13.12;99.26;99717.94;5053791;28;20045;-59
2023/10/22 01:40:53;;;;;;;3.35;1.50;;;;;;;13.12;100.00;99717.94;5053600;28;20052;-59
2023/10/22 01:43:18;;;;;;;2.95;1.50;;;;;;;13.10;99.84;99711.75;5053845;28;20037;-59
2023/10/22 01:45:44;;;;;;;4.25;1.90;;;;;;;13.08;100.00;99730.38;5053854;28;20047;-59
2023/10/22 01:48:10;;;;;;;4.28;1.80;;;;;;;13.03;100.00;99718.97;5053397;28;20037;-59
2023/10/22 01:50:36;;;;;;;5.18;1.70;;;;;;;13.02;100.00;99734.00;5053416;28;20542;-59
2023/10/22 01:53:01;;;;;;;5.47;2.03;;;;;;;12.98;100.00;99739.41;5053443;28;20028;-59
2023/10/22 01:55:27;;;;;;;4.75;2.03;;;;;;;12.96;100.00;99741.19;5052950;28;20541;-60
2023/10/22 01:57:52;;;;;;;5.18;2.10;;;;;;;12.92;100.00;99748.31;5053193;28;20065;-60
2023/10/22 02:00:18;;;;;;;5.50;1.90;;;;;;;12.86;100.00;99753.72;5051951;28;20043;-59
2023/10/22 02:02:43;;;;;;;4.50;1.90;;;;;;;12.85;100.00;99745.78;5053224;28;20048;-60
2023/10/22 02:05:08;;;;;;;4.63;1.75;;;;;;;12.78;100.00;99758.25;5053203;28;20071;-60
2023/10/22 02:07:38;;;;;;;4.30;1.95;;;;;;;12.70;100.00;99758.38;5053232;28;20128;-60
2023/10/22 02:10:03;;;;;;;5.05;1.90;;;;;;;12.66;100.00;99761.09;5052865;28;20079;-61
2023/10/22 02:12:29;;;;;;;5.15;1.90;;;;;;;12.59;100.00;99768.28;5052290;28;20033;-61
2023/10/22 02:14:55;;;;;;;6.18;1.92;;;;;;;12.53;100.00;99774.53;5052552;28;20028;-61
2023/10/22 02:17:21;;;;;;;4.90;1.90;;;;;;;12.46;100.00;99775.53;5052966;28;20060;-61
2023/10/22 02:19:46;;;;;;;4.00;1.88;;;;;;;12.46;100.00;99782.59;5052592;28;20056;-61
2023/10/22 02:22:12;;;;;;;5.03;2.10;;;;;;;12.42;100.00;99797.66;5052998;28;20116;-61
2023/10/22 02:24:38;;;;;;;4.25;1.90;;;;;;;12.39;100.00;99788.88;5053172;28;20040;-61
2023/10/22 02:27:03;;;;;;;6.88;2.08;;;;;;;12.41;100.00;99795.91;5052923;28;20526;-61
2023/10/22 02:29:29;;;;;;;4.95;1.90;;;;;;;12.33;100.00;99794.25;5052852;28;20040;-61
2023/10/22 02:31:54;;;;;;;3.95;2.00;;;;;;;12.34;100.00;99809.28;5052937;28;20017;-60
2023/10/22 02:34:19;;;;;;;5.47;2.00;;;;;;;12.32;100.00;99801.31;5051387;28;20037;-61
2023/10/22 02:36:45;;;;;;;4.47;2.00;;;;;;;12.27;100.00;99811.97;5051605;28;20021;-61
2023/10/22 02:39:11;;;;;;;5.68;1.80;;;;;;;12.27;100.00;99822.56;5052493;28;20502;-61
2023/10/22 02:41:37;;;;;;;4.35;1.92;;;;;;;12.26;100.00;99823.47;5052718;28;20025;-61
2023/10/22 02:44:02;;;;;;;6.80;2.10;;;;;;;12.25;100.00;99827.03;5052687;28;20379;-60
2023/10/22 02:46:28;;;;;;;5.32;1.90;;;;;;;12.25;100.00;99836.75;5052779;28;20025;-61
2023/10/22 02:48:53;;;;;;;3.75;1.83;;;;;;;12.27;100.00;99835.81;5052543;28;20083;-61
2023/10/22 02:51:18;;;;;;;3.88;1.90;;;;;;;12.26;100.00;99839.38;5052595;28;20075;-61
2023/10/22 02:53:44;;;;;;;3.95;1.80;;;;;;;12.24;100.00;99838.50;5052738;28;20479;-61
2023/10/22 02:56:10;;;;;;;6.72;2.10;;;;;;;12.24;100.00;99840.28;5052878;28;20036;-61
2023/10/22 02:58:38;;;;;;;5.95;2.20;;;;;;;12.22;100.00;99847.38;5052447;28;20116;-60
2023/10/22 03:01:08;;;;;;;5.40;2.10;;;;;;;12.22;100.00;99860.63;5052576;28;20029;-61
2023/10/22 03:03:40;;;;;;;5.32;1.98;;;;;;;12.21;100.00;99857.09;5052746;28;20052;-60
2023/10/22 03:06:07;;;;;;;;;;;;;;;12.23;100.00;99863.25;5051701;28;20063;-61
2023/10/22 03:08:34;;;;;;;6.25;2.30;;;;;;;12.21;100.00;99872.13;5055577;28;19991;-61
2023/10/22 03:11:00;;;;;;;4.10;2.00;;;;;;;12.20;100.00;99879.16;5056378;28;20482;-60
2023/10/22 03:13:25;;;;;;;4.07;2.05;;;;;;;12.20;100.00;99871.22;5056740;28;20037;-60
2023/10/22 03:15:50;;;;;;;2.97;2.00;;;;;;;12.21;100.00;99874.75;5056587;28;20025;-60
2023/10/22 03:18:16;;;;;;;5.45;2.10;;;;;;;12.18;100.00;99883.59;5056183;28;20025;-60
2023/10/22 03:20:42;;;;;;;6.75;2.20;;;;;;;12.18;100.00;99880.09;5055988;28;20045;-60
2023/10/22 03:23:08;;;;;;;7.75;2.30;;;;;;;12.20;100.00;99889.75;5054954;28;20064;-60
2023/10/22 03:25:34;;;;;;;9.80;2.20;;;;;;;12.19;100.00;99888.00;5056218;28;20033;-60
2023/10/22 03:28:00;;;;;;;5.85;2.22;;;;;;;12.21;100.00;99902.13;5056347;28;20029;-60
2023/10/22 03:30:26;;;;;;;3.80;2.35;;;;;;;12.21;100.00;99914.50;5056271;28;20037;-60
2023/10/22 03:32:54;;;;;;;8.20;2.65;;;;;;;12.19;100.00;99926.84;5055898;28;20498;-60
2023/10/22 03:35:19;;;;;;;6.22;2.38;;;;;;;12.21;100.00;99928.59;5055795;28;20029;-60
2023/10/22 03:37:45;;;;;;;7.53;2.72;;;;;;;12.20;100.00;99937.41;5055827;28;20024;-61
2023/10/22 03:40:10;;;;;;;4.72;2.70;;;;;;;12.19;100.00;99940.97;5055665;28;20425;-60
2023/10/22 03:42:36;;;;;;;3.70;2.70;;;;;;;12.18;100.00;99956.88;5055907;28;20055;-60
2023/10/22 03:45:01;;;;;;;7.40;3.10;;;;;;;12.13;100.00;99956.94;5055804;28;20075;-60
2023/10/22 03:47:27;;;;;;;6.35;2.95;;;;;;;12.12;100.00;99967.53;5055837;28;20040;-60
2023/10/22 03:49:52;;;;;;;6.93;3.33;;;;;;;12.09;100.00;99979.03;5055505;28;20029;-60
2023/10/22 03:52:17;;;;;;;4.45;3.20;;;;;;;12.08;100.00;99977.28;5055756;28;20082;-60
2023/10/22 03:54:43;;;;;;;8.02;3.80;;;;;;;12.04;100.00;99980.88;5055728;28;20498;-60
2023/10/22 03:57:09;;;;;;;7.22;3.65;;;;;;;12.02;100.00;99987.94;5055893;28;20103;-60
2023/10/22 03:59:35;;;;;;;5.25;3.65;;;;;;;12.00;100.00;99995.03;5055590;28;20041;-60
2023/10/22 04:02:01;;;;;;;6.15;3.72;;;;;;;11.99;100.00;100003.81;5055506;28;20033;-60
2023/10/22 04:04:26;;;;;;;8.75;3.90;;;;;;;11.98;100.00;100007.38;5055563;28;20031;-60
2023/10/22 04:06:51;;;;;;;7.65;4.10;;;;;;;11.96;100.00;100007.41;5055627;28;20025;-60
2023/10/22 04:09:17;;;;;;;6.22;4.10;;;;;;;11.96;100.00;100017.13;5055165;28;20475;-60
2023/10/22 04:11:42;;;;;;;6.50;4.00;;;;;;;11.94;100.00;100014.47;5055216;28;20114;-60
2023/10/22 04:14:07;;;;;;;6.30;4.10;;;;;;;11.94;100.00;100022.41;5055238;28;20048;-60
2023/10/22 04:16:33;;;;;;;8.95;4.25;;;;;;;11.93;100.00;100027.72;5055421;28;20131;-60
2023/10/22 04:18:58;;;;;;;9.38;4.30;;;;;;;11.91;100.00;100030.41;5053988;28;20035;-60
2023/10/22 04:21:24;;;;;;;10.10;4.20;;;;;;;11.91;100.00;100037.47;5054810;28;20052;-60
2023/10/22 04:23:50;;;;;;;9.68;4.20;;;;;;;11.89;100.00;100045.41;5055278;28;20087;-60
2023/10/22 04:26:16;;;;;;;8.02;4.50;;;;;;;11.86;100.00;100048.09;5055006;28;20025;-60
2023/10/22 04:28:47;;;;;;;7.43;4.22;;;;;;;11.85;100.00;100048.94;5055208;28;20079;-60
2023/10/22 04:31:12;;;;;;;6.95;4.00;;;;;;;11.82;100.00;100062.19;5054804;28;20045;-60
2023/10/22 04:33:38;;;;;;;10.23;4.40;;;;;;;11.81;100.00;100051.59;5054764;28;20031;-60
2023/10/22 04:36:04;;;;;;;7.50;4.20;;;;;;;11.81;100.00;100064.84;5054979;28;20036;-60
2023/10/22 04:38:30;;;;;;;10.77;4.18;;;;;;;11.78;100.00;100063.97;5054641;28;20043;-60
2023/10/22 04:40:56;;;;;;;8.10;4.10;;;;;;;11.75;100.00;100069.28;5054615;28;20437;-60
2023/10/22 04:43:21;;;;;;;8.93;4.20;;;;;;;11.75;100.00;100071.94;5054584;28;20123;-60
2023/10/22 04:45:50;;;;;;;9.13;4.50;;;;;;;11.74;100.00;100075.47;5054741;28;20021;-60
2023/10/22 04:48:16;;;;;;;6.90;3.95;;;;;;;11.69;100.00;100071.06;5054657;28;20107;-60
2023/10/22 04:50:44;;;;;;;8.50;4.10;;;;;;;11.66;100.00;100079.06;5054422;28;20028;-60
2023/10/22 04:53:10;;;;;;;7.18;4.07;;;;;;;11.60;100.00;100087.88;5054396;28;20423;-60
2023/10/22 04:55:35;;;;;;;8.13;4.20;;;;;;;11.57;100.00;100087.94;5054322;28;20052;-60
2023/10/22 04:58:02;;;;;;;7.97;4.10;;;;;;;11.50;100.00;100100.31;5054359;28;20505;-60
2023/10/22 05:00:27;;;;;;;8.25;3.70;;;;;;;11.46;100.00;100095.03;5054419;28;20025;-60
2023/10/22 05:02:53;;;;;;;7.43;3.88;;;;;;;11.44;100.00;100103.00;5054445;28;20493;-60
2023/10/22 05:05:20;;;;;;;7.30;3.90;;;;;;;11.43;100.00;100102.97;5054025;28;20090;-60
2023/10/22 05:07:46;;;;;;;10.93;3.63;;;;;;;11.38;100.00;100104.75;5054154;28;20028;-60
2023/10/22 05:10:12;;;;;;;7.53;3.78;;;;;;;11.35;100.00;100113.63;5054258;28;20056;-60
2023/10/22 05:12:37;;;;;;;8.43;3.53;;;;;;;11.31;100.00;100121.56;5054063;28;20154;-60
2023/10/22 05:15:03;;;;;;;7.38;3.60;;;;;;;11.27;100.00;100120.69;5054216;28;20458;-60
2023/10/22 05:17:29;;;;;;;7.30;3.75;;;;;;;11.25;100.00;100119.81;5054034;28;20368;-60
2023/10/22 05:19:54;;;;;;;7.70;3.90;;;;;;;11.20;100.00;100124.25;5052253;28;20029;-60
2023/10/22 05:22:20;;;;;;;8.77;3.80;;;;;;;11.19;100.00;100131.31;5054032;28;20040;-60
2023/10/22 05:24:49;;;;;;;8.30;3.70;;;;;;;11.16;100.00;100136.59;5053797;28;20052;-60
2023/10/22 05:27:16;;;;;;;7.85;3.60;;;;;;;11.13;100.00;100141.00;5053845;28;20029;-60
2023/10/22 05:29:43;;;;;;;9.05;3.80;;;;;;;11.12;100.00;100144.53;5053915;28;20107;-60
2023/10/22 05:32:08;;;;;;;5.72;3.47;;;;;;;11.09;100.00;100156.03;5053784;28;20036;-60
2023/10/22 05:34:33;;;;;;;6.53;3.58;;;;;;;11.06;100.00;100156.00;5053533;28;20029;-60
2023/10/22 05:36:59;;;;;;;7.50;3.65;;;;;;;11.04;100.00;100165.69;5053582;28;20363;-60
2023/10/22 05:39:25;;;;;;;7.55;3.47;;;;;;;10.99;100.00;100171.00;5053609;28;20119;-60
2023/10/22 05:41:50;;;;;;;6.55;3.13;;;;;;;10.96;100.00;100172.75;5053499;28;20441;-60
2023/10/22 05:44:15;;;;;;;6.22;3.35;;;;;;;10.95;100.00;100171.00;5053775;28;20063;-60
2023/10/22 05:46:41;;;;;;;5.50;3.55;;;;;;;10.92;100.00;100171.91;5053428;28;20364;-60
2023/10/22 05:49:09;;;;;;;7.97;3.25;;;;;;;10.92;100.00;100165.72;5053592;28;20112;-60
2023/10/22 05:51:35;;;;;;;5.10;3.28;;;;;;;10.89;100.00;100179.84;5053654;28;20029;-60
2023/10/22 05:54:00;;;;;;;10.27;3.60;;;;;;;10.87;100.00;100188.63;5053569;28;20055;-60
2023/10/22 05:56:28;;;;;;;8.48;3.70;;;;;;;10.84;100.00;100194.81;5053295;28;20029;-60
2023/10/22 05:58:53;;;;;;;6.75;3.22;;;;;;;10.79;100.00;100188.63;5053213;28;20033;-60
2023/10/22 06:01:19;;;;;;;7.90;3.20;;;;;;;10.79;100.00;100199.22;5053482;28;20102;-60
2023/10/22 06:03:44;;;;;;;7.47;3.45;;;;;;;10.77;100.00;100193.94;5053088;28;20033;-60
2023/10/22 06:06:10;;;;;;;8.82;3.78;;;;;;;10.73;100.00;100202.75;5053141;28;20033;-60
2023/10/22 06:08:35;;;;;;;4.95;3.10;;;;;;;10.72;100.00;100208.91;5052686;28;20036;-60
2023/10/22 06:11:05;;;;;;;7.38;3.05;;;;;;;10.69;100.00;100216.84;5053100;28;20108;-60
2023/10/22 06:13:32;;;;;;;7.57;3.38;;;;;;;10.69;100.00;100219.47;5052943;28;20410;-60
2023/10/22 06:15:57;;;;;;;8.52;3.10;;;;;;;10.68;100.00;100230.06;5052857;28;20323;-60
2023/10/22 06:18:23;;;;;;;4.82;3.00;;;;;;;10.65;100.00;100228.28;5052440;28;20461;-60
2023/10/22 06:20:48;;;;;;;7.65;2.70;;;;;;;10.66;100.00;100229.16;5052352;28;20052;-60
2023/10/22 06:23:13;;;;;;;5.32;2.88;;;;;;;10.64;100.00;100236.22;5052531;28;20033;-60
2023/10/22 06:25:42;;;;;;;6.03;2.85;;;;;;;10.65;100.00;100244.13;5052599;28;20487;-60
2023/10/22 06:28:08;;;;;;;6.45;2.70;;;;;;;10.68;100.00;100246.78;5052323;28;20319;-60
2023/10/22 06:30:34;;;;;;;6.88;2.63;;;;;;;10.70;100.00;100252.94;5052508;28;20033;-60
2023/10/22 06:32:59;;;;;;;8.70;2.45;;;;;;;10.72;100.00;100256.47;5052699;28;20036;-60
2023/10/22 06:35:28;;;;;;;5.65;2.30;;;;;;;10.72;100.00;100255.59;5052579;28;20029;-60
2023/10/22 06:37:54;;;;;;;3.97;2.50;;;;;;;10.76;100.00;100265.31;5052408;28;20021;-60
2023/10/22 06:40:20;;;;;;;5.47;2.40;;;;;;;10.78;100.00;100272.31;5052304;28;20355;-60
2023/10/22 06:42:46;;;;;;;5.50;2.40;;;;;;;10.80;100.00;100277.63;5052137;28;20351;-60
2023/10/22 06:45:12;;;;;;;5.50;2.33;;;;;;;10.81;100.00;100275.88;5052324;28;20025;-60
2023/10/22 06:47:38;;;;;;;4.00;2.30;;;;;;;10.83;100.00;100282.91;5050996;28;20032;-60
2023/10/22 06:50:08;;;;;;;8.07;2.30;;;;;;;10.85;100.00;100290.84;5051028;28;20044;-60
2023/10/22 06:52:35;;;;;;;4.82;2.30;;;;;;;10.90;100.00;100294.38;5052316;28;20032;-60
2023/10/22 06:55:01;;;;;;;5.50;2.30;;;;;;;10.91;100.00;100290.84;5052198;28;20366;-60
2023/10/22 06:57:27;;;;;;;6.85;2.30;;;;;;;10.93;100.00;100297.03;5052327;28;20522;-60
2023/10/22 06:59:54;;;;;;;6.32;2.50;;;;;;;10.95;100.00;100298.78;5052083;28;20086;-60
2023/10/22 07:02:19;;;;;;;3.78;1.98;;;;;;;11.00;100.00;100304.94;5052152;28;20032;-60
2023/10/22 07:04:47;;;;;;;5.78;2.20;;;;;;;11.01;100.00;100304.06;5052197;28;20028;-60
2023/10/22 07:07:13;;;;;;;5.68;2.25;;;;;;;11.05;100.00;100310.25;5052023;28;20112;-60
2023/10/22 07:09:38;;;;;;;5.97;2.15;;;;;;;11.09;100.00;100309.38;5051975;28;20087;-60
2023/10/22 07:12:04;;;;;;;4.28;2.10;;;;;;;11.13;100.00;100321.69;5050778;28;20025;-60
2023/10/22 07:14:29;;;;;;;4.00;2.00;;;;;;;11.17;100.00;100326.09;5052429;28;20135;-60
2023/10/22 07:16:55;;;;;;;6.18;2.10;;;;;;;11.18;100.00;100330.53;5052116;28;20029;-60
2023/10/22 07:19:20;;;;;;;2.83;2.00;;;;;;;11.20;100.00;100334.03;5051972;28;20072;-60
2023/10/22 07:21:46;;;;;;;5.20;1.98;;;;;;;11.22;100.00;100342.88;5051777;28;20411;-60
2023/10/22 07:24:11;;;;;;;4.65;1.77;;;;;;;11.22;100.00;100339.31;5051968;28;20104;-60
2023/10/22 07:26:37;;;;;;;9.43;2.30;;;;;;;11.18;100.00;100343.75;5051985;28;20382;-60
2023/10/22 07:29:02;;;;;;;6.65;2.28;;;;;;;11.22;100.00;100363.09;5051962;28;20025;-60
2023/10/22 07:31:28;;;;;;;9.27;2.38;;;;;;;11.19;100.00;100360.50;5052008;28;20033;-60
2023/10/22 07:33:53;;;;;;;3.22;2.10;;;;;;;11.19;100.00;100369.31;5051804;28;20478;-60
2023/10/22 07:36:19;;;;;;;7.30;2.42;;;;;;;11.17;100.00;100373.69;5051891;28;20033;-60
2023/10/22 07:38:44;;;;;;;8.18;2.22;;;;;;;11.19;100.00;100386.94;5051697;28;20029;-60
2023/10/22 07:41:16;;;;;;;6.07;2.30;;;;;;;11.20;100.00;100380.75;5052064;28;20345;-60
2023/10/22 07:43:42;;;;;;;5.32;2.35;;;;;;;11.22;100.00;100390.47;5051604;28;20385;-60
2023/10/22 07:46:09;;;;;;;6.90;2.35;;;;;;;11.25;100.00;100381.63;5052035;28;20029;-60
2023/10/22 07:48:34;;;;;;;7.10;2.33;;;;;;;11.32;100.00;100393.13;5052028;28;20041;-60
2023/10/22 07:51:13;;;;;;;8.40;2.30;;;;;;;11.42;100.00;100394.88;5051608;28;20027;-60
2023/10/22 07:53:39;;;;;;;5.03;2.50;;;;;;;11.74;100.00;100386.91;5052041;28;20114;-60
2023/10/22 07:56:06;;;;;;;4.97;2.40;;;;;;;11.98;100.00;100399.25;5055311;28;20025;-60
2023/10/22 07:58:32;;;;;;;6.75;2.42;;;;;;;12.05;100.00;100397.47;5055436;28;20044;-60
2023/10/22 08:00:57;;;;;;;7.28;2.58;;;;;;;12.14;100.00;100400.09;5055183;28;20032;-60
2023/10/22 08:03:23;;;;;;;5.45;2.47;;;;;;;12.23;100.00;100400.94;5055225;28;20021;-60
2023/10/22 08:05:48;;;;;;;6.57;2.10;;;;;;;12.32;100.00;100404.47;5054921;28;20029;-60
2023/10/22 08:08:13;;;;;;;5.80;2.28;;;;;;;12.36;100.00;100415.03;5055149;28;20065;-60
2023/10/22 08:10:39;;;;;;;5.32;2.25;;;;;;;12.36;100.00;100412.38;5054722;28;20086;-60
2023/10/22 08:13:04;;;;;;;4.13;2.25;;;;;;;12.38;100.00;100420.34;5055124;28;20028;-60
2023/10/22 08:15:30;;;;;;;6.68;2.38;;;;;;;12.38;100.00;100418.56;5053501;28;20120;-60
2023/10/22 08:17:55;;;;;;;4.85;2.40;;;;;;;12.37;100.00;100426.50;5055016;28;20053;-60
2023/10/22 08:20:20;;;;;;;5.60;2.17;;;;;;;12.41;100.00;100417.66;5054706;28;20107;-60
2023/10/22 08:22:46;;;;;;;5.38;2.25;;;;;;;12.48;100.00;100416.75;5054722;28;20490;-60
2023/10/22 08:25:11;;;;;;;6.22;2.40;;;;;;;12.51;100.00;100411.47;5054728;28;20075;-60
2023/10/22 08:27:37;;;;;;;5.28;2.30;;;;;;;12.58;100.00;100422.91;5054634;28;20029;-60
2023/10/22 08:30:02;;;;;;;5.53;2.40;;;;;;;12.65;100.00;100428.19;5053481;28;20037;-60
2023/10/22 08:32:28;;;;;;;4.57;2.60;;;;;;;12.78;100.00;100437.84;5054310;28;20574;-60
2023/10/22 08:34:53;;;;;;;4.68;2.28;;;;;;;13.07;100.00;100434.16;5054606;28;20041;-60
2023/10/22 08:37:19;;;;;;;6.65;2.72;;;;;;;13.52;100.00;100440.94;5054339;28;20098;-60
2023/10/22 08:39:44;;;;;;;5.93;2.58;;;;;;;13.79;100.00;100444.28;5054254;28;20028;-60
2023/10/22 08:42:16;;;;;;;7.18;2.22;;;;;;;13.86;100.00;100447.72;5052985;28;20029;-60
2023/10/22 08:44:46;;;;;;;7.57;2.50;;;;;;;13.96;100.00;100454.72;5054601;28;20036;-60
2023/10/22 08:47:12;;;;;;;7.57;2.70;;;;;;;14.04;100.00;100447.56;5054294;28;20056;-60
2023/10/22 08:49:41;;;;;;;7.75;2.28;;;;;;;14.03;98.47;100462.63;5054143;28;20068;-60
2023/10/22 08:52:10;;;;;;;6.72;2.70;;;;;;;13.93;99.62;100462.72;5054586;28;20028;-60
2023/10/22 08:54:37;;;;;;;6.28;2.40;;;;;;;13.92;100.00;100469.81;5054092;28;20033;-60
2023/10/22 08:57:02;;;;;;;9.23;2.60;;;;;;;13.90;99.79;100471.59;5054126;28;20471;-60
2023/10/22 08:59:29;;;;;;;5.95;2.50;;;;;;;13.93;99.74;100470.69;5052779;28;20028;-60
2023/10/22 09:01:54;;;;;;;3.90;2.33;;;;;;;13.91;99.86;100464.50;5054314;28;20061;-60
2023/10/22 09:04:20;;;;;;;3.88;2.30;;;;;;;13.85;99.78;100477.84;5053647;28;20557;-60
2023/10/22 09:06:46;;;;;;;9.27;2.30;;;;;;;13.81;99.58;100473.47;5053969;28;20033;-60
2023/10/22 09:09:38;;;;;;;6.85;2.60;;;;;;;13.77;100.00;100478.78;5053888;28;20078;-60
2023/10/22 09:12:08;;;;;;;4.10;2.58;;;;;;;13.80;100.00;100482.31;5052737;28;20041;-60
2023/10/22 09:14:34;;;;;;;6.07;2.50;;;;;;;13.82;100.00;100480.53;5053593;28;20025;-62
2023/10/22 09:17:14;;;;;;;5.47;2.40;;;;;;;13.88;100.00;100485.81;5053653;28;20078;-60
2023/10/22 09:19:40;;;;;;;7.25;2.75;;;;;;;13.89;100.00;100483.13;5052317;28;20490;-61
2023/10/22 09:22:07;;;;;;;6.13;2.80;;;;;;;13.94;100.00;100489.28;5053353;28;20041;-60
2023/10/22 09:24:36;;;;;;;6.93;2.88;;;;;;;13.97;100.00;100491.91;5053420;28;20382;-60
2023/10/22 09:27:01;;;;;;;5.60;2.70;;;;;;;14.03;100.00;100504.25;5053679;28;20037;-60
2023/10/22 09:29:27;;;;;;;6.63;3.00;;;;;;;13.96;100.00;100508.75;5053655;28;20052;-60
2023/10/22 09:31:55;;;;;;;5.32;2.80;;;;;;;13.91;100.00;100517.63;5053267;28;20154;-60
2023/10/22 09:34:27;;;;;;;5.65;2.88;;;;;;;13.93;100.00;100513.19;5053478;28;20165;-60
2023/10/22 09:36:56;;;;;;;7.22;3.33;;;;;;;13.93;100.00;100514.06;5053143;28;20035;-60
2023/10/22 09:39:38;;;;;;;5.72;2.80;;;;;;;13.93;100.00;100518.50;5051593;28;20538;-60
2023/10/22 09:42:08;;;;;;;7.32;3.28;;;;;;;13.88;100.00;100526.53;5053079;28;20592;-60
2023/10/22 09:44:34;;;;;;;5.63;3.15;;;;;;;13.87;100.00;100527.38;5053415;28;20120;-60
2023/10/22 09:47:05;;;;;;;8.80;3.50;;;;;;;13.83;100.00;100535.41;5052995;28;20033;-60
2023/10/22 09:49:32;;;;;;;5.35;3.10;;;;;;;13.82;100.00;100546.91;5053143;28;20400;-60
2023/10/22 09:52:00;;;;;;;7.80;3.35;;;;;;;13.79;100.00;100539.88;5051578;28;20029;-60
2023/10/22 09:54:39;;;;;;;6.07;2.95;;;;;;;13.76;100.00;100543.41;5052869;28;20051;-60
2023/10/22 09:57:12;;;;;;;6.05;3.20;;;;;;;13.76;100.00;100540.75;5052919;28;20474;-60
2023/10/22 09:59:39;;;;;;;7.05;3.15;;;;;;;13.78;100.00;100546.06;5052893;28;20025;-60
2023/10/22 10:02:05;;;;;;;5.63;2.97;;;;;;;13.77;100.00;100542.53;5052868;28;20036;-59
2023/10/22 10:04:33;;;;;;;7.32;3.30;;;;;;;13.81;100.00;100545.16;5051691;28;20037;-60
2023/10/22 10:07:01;;;;;;;7.35;3.38;;;;;;;13.76;100.00;100547.84;5052800;28;20029;-60
2023/10/22 10:09:27;;;;;;;5.80;3.33;;;;;;;13.77;100.00;100547.81;5046865;28;20023;-60
2023/10/22 10:11:54;;;;;;;7.00;3.50;;;;;;;13.82;100.00;100552.22;5033055;28;20128;-60
2023/10/22 10:14:38;;;;;;;9.27;3.53;;;;;;;13.83;100.00;100546.91;5031497;28;20105;-60
2023/10/22 10:17:04;;;;;;;5.93;3.40;;;;;;;13.83;100.00;100551.31;5032318;28;20035;-60
2023/10/22 10:19:30;;;;;;;5.57;3.60;;;;;;;13.87;100.00;100550.41;5032602;28;20025;-60
2023/10/22 10:21:56;;;;;;;8.55;3.40;;;;;;;13.97;100.00;100553.00;5031420;28;20120;-61
2023/10/22 10:24:26;;;;;;;6.28;3.30;;;;;;;14.04;100.00;100564.44;5031915;28;20386;-60
2023/10/22 10:26:55;;;;;;;9.98;3.60;;;;;;;14.09;100.00;100567.06;5031394;28;20017;-60
2023/10/22 10:29:21;;;;;;;6.35;3.33;;;;;;;14.12;100.00;100567.03;5033716;28;20081;-59
2023/10/22 10:31:48;;;;;;;7.95;3.63;;;;;;;14.14;100.00;100575.91;5043372;28;20026;-60
2023/10/22 10:34:21;;;;;;;5.70;3.55;;;;;;;14.16;100.00;100585.59;5045818;28;20048;-60
2023/10/22 10:36:49;;;;;;;7.38;3.42;;;;;;;14.14;100.00;100582.09;5039276;28;20476;-60
2023/10/22 10:39:40;;;;;;;6.05;3.60;;;;;;;14.16;100.00;100582.94;5038607;28;20150;-60
2023/10/22 10:42:06;;;;;;;6.73;3.13;;;;;;;14.20;100.00;100587.34;5041556;28;20033;-60
2023/10/22 10:44:32;;;;;;;5.88;3.60;;;;;;;14.17;100.00;100587.38;5049417;28;20324;-60
2023/10/22 10:47:19;;;;;;;6.18;3.28;;;;;;;14.19;100.00;100595.34;5041719;28;20513;-61
2023/10/22 10:50:07;;;;;;;9.90;3.50;;;;;;;14.16;100.00;100590.03;5038813;28;20489;-60
2023/10/22 10:52:41;;;;;;;5.20;3.47;;;;;;;14.11;100.00;100590.09;5035271;28;20021;-59
2023/10/22 10:55:19;;;;;;;8.07;3.60;;;;;;;14.14;100.00;100586.53;5035092;28;20100;-59
2023/10/22 10:57:51;;;;;;;8.02;3.60;;;;;;;14.10;100.00;100587.44;5038139;28;20021;-60
2023/10/22 11:00:29;;;;;;;8.20;3.40;;;;;;;14.07;100.00;100580.38;5043176;28;20025;-60
2023/10/22 11:02:57;;;;;;;6.53;3.53;;;;;;;14.00;100.00;100586.63;5039645;28;20445;-60
2023/10/22 11:05:42;;;;;;;6.47;3.22;;;;;;;14.07;100.00;100585.69;5039738;28;20039;-60
2023/10/22 11:08:22;;;;;;;6.93;3.65;;;;;;;14.10;100.00;100593.66;5039016;28;20021;-60
2023/10/22 11:10:47;;;;;;;6.25;3.45;;;;;;;14.14;99.74;100586.53;5035400;28;20029;-59
2023/10/22 11:13:13;;;;;;;5.47;3.30;;;;;;;14.14;99.80;100581.22;5041712;28;20095;-60
2023/10/22 11:15:40;;;;;;;5.80;3.40;;;;;;;14.17;99.92;100589.16;5040685;28;20056;-61
2023/10/22 11:18:09;;;;;;;6.45;3.20;;;;;;;14.23;99.10;100597.97;5042413;28;20102;-60
2023/10/22 11:20:36;;;;;;;6.90;3.40;;;;;;;14.35;99.36;100594.31;5040343;28;20049;-59